createdAt,value
2017-07-04T00:00:18.458Z,17.9
2017-07-04T00:00:56.125Z,17.8
2017-07-04T00:01:34.098Z,14.1
2017-07-04T00:02:11.962Z,14.1
2017-07-04T00:02:49.833Z,17.9
2017-07-04T00:03:27.902Z,20.0
2017-07-04T00:04:05.965Z,21.5
2017-07-04T00:04:43.834Z,16.7
2017-07-04T00:05:22.005Z,16.5
2017-07-04T00:06:00.071Z,13.4
2017-07-04T00:06:38.248Z,14.1
2017-07-04T00:07:15.921Z,15.8
2017-07-04T00:07:53.881Z,15.6
2017-07-04T00:08:31.444Z,15.2
2017-07-04T00:09:09.651Z,15.4
2017-07-04T00:09:47.421Z,19.4
2017-07-04T00:10:25.091Z,17.2
2017-07-04T00:11:02.869Z,12.0
2017-07-04T00:11:41.238Z,15.3
2017-07-04T00:12:19.100Z,17.1
2017-07-04T00:12:57.067Z,16.3
2017-07-04T00:13:35.135Z,12.9
2017-07-04T00:14:13.204Z,14.2
2017-07-04T00:14:50.985Z,13.0
2017-07-04T00:15:29.051Z,11.9
2017-07-04T00:16:06.916Z,15.4
2017-07-04T00:16:44.688Z,13.6
2017-07-04T00:17:22.248Z,13.2
2017-07-04T00:18:00.020Z,14.1
2017-07-04T00:18:37.694Z,14.2
2017-07-04T00:19:15.690Z,16.9
2017-07-04T00:19:53.555Z,14.5
2017-07-04T00:20:31.624Z,16.0
2017-07-04T00:21:09.393Z,19.0
2017-07-04T00:21:47.367Z,17.4
2017-07-04T00:22:25.347Z,14.8
2017-07-04T00:23:03.309Z,12.3
2017-07-04T00:23:41.173Z,12.7
2017-07-04T00:24:19.140Z,14.3
2017-07-04T00:24:57.613Z,16.5
2017-07-04T00:25:35.329Z,19.5
2017-07-04T00:26:13.420Z,18.5
2017-07-04T00:26:51.488Z,14.2
2017-07-04T00:27:29.457Z,15.5
2017-07-04T00:28:07.125Z,18.7
2017-07-04T00:28:44.794Z,16.4
2017-07-04T00:29:22.668Z,14.0
2017-07-04T00:30:00.532Z,16.8
2017-07-04T00:30:38.102Z,20.7
2017-07-04T00:31:15.770Z,17.2
2017-07-04T00:31:53.442Z,13.9
2017-07-04T00:32:31.405Z,20.0
2017-07-04T00:33:09.373Z,20.3
2017-07-04T00:33:47.241Z,18.9
2017-07-04T00:34:25.011Z,16.3
2017-07-04T00:35:02.783Z,13.3
2017-07-04T00:35:40.447Z,14.4
2017-07-04T00:36:18.320Z,17.8
2017-07-04T00:36:56.180Z,18.6
2017-07-04T00:37:34.045Z,14.4
2017-07-04T00:38:11.609Z,14.5
2017-07-04T00:38:49.282Z,19.7
2017-07-04T00:39:27.268Z,20.1
2017-07-04T00:40:04.935Z,14.6
2017-07-04T00:40:42.606Z,14.0
2017-07-04T00:41:20.488Z,15.3
2017-07-04T00:41:58.160Z,12.6
2017-07-04T00:42:36.124Z,14.7
2017-07-04T00:43:13.992Z,17.7
2017-07-04T00:43:51.965Z,16.0
2017-07-04T00:44:29.836Z,19.6
2017-07-04T00:45:08.006Z,22.8
2017-07-04T00:45:45.965Z,21.6
2017-07-04T00:46:23.736Z,22.1
2017-07-04T00:47:01.604Z,16.7
2017-07-04T00:47:39.372Z,16.9
2017-07-04T00:48:17.439Z,15.7
2017-07-04T00:48:55.410Z,17.1
2017-07-04T00:49:33.380Z,23.3
2017-07-04T00:50:10.939Z,20.4
2017-07-04T00:50:48.807Z,16.4
2017-07-04T00:51:26.675Z,21.3
2017-07-04T00:52:04.440Z,15.4
2017-07-04T00:52:42.307Z,24.3
2017-07-04T00:53:20.278Z,23.7
2017-07-04T00:53:58.148Z,20.0
2017-07-04T00:54:36.220Z,19.9
2017-07-04T00:55:13.982Z,19.3
2017-07-04T00:55:51.848Z,21.1
2017-07-04T00:56:29.916Z,22.9
2017-07-04T00:57:07.789Z,20.4
2017-07-04T00:57:45.453Z,19.0
2017-07-04T00:58:23.120Z,18.4
2017-07-04T00:59:01.285Z,18.3
2017-07-04T00:59:39.551Z,18.7
2017-07-04T01:00:17.419Z,20.4
2017-07-04T01:00:55.584Z,24.4
2017-07-04T01:01:33.456Z,23.6
2017-07-04T01:02:11.325Z,18.0
2017-07-04T01:02:49.001Z,16.9
2017-07-04T01:03:26.884Z,20.0
2017-07-04T01:04:05.137Z,21.6
2017-07-04T01:04:43.115Z,16.1
2017-07-04T01:05:21.078Z,15.5
2017-07-04T01:05:58.848Z,15.8
2017-07-04T01:06:36.520Z,18.4
2017-07-04T01:07:14.280Z,17.0
2017-07-04T01:07:52.148Z,15.9
2017-07-04T01:08:30.041Z,20.7
2017-07-04T01:09:08.116Z,20.7
2017-07-04T01:09:45.987Z,19.2
2017-07-04T01:10:23.657Z,20.8
2017-07-04T01:11:01.624Z,18.2
2017-07-04T01:11:39.384Z,17.1
2017-07-04T01:12:17.354Z,14.8
2017-07-04T01:12:55.324Z,16.2
2017-07-04T01:13:32.887Z,20.3
2017-07-04T01:14:10.969Z,19.5
2017-07-04T01:14:49.137Z,21.3
2017-07-04T01:15:27.003Z,23.7
2017-07-04T01:16:04.573Z,26.8
2017-07-04T01:16:42.339Z,22.8
2017-07-04T01:17:20.310Z,19.7
2017-07-04T01:17:58.181Z,21.4
2017-07-04T01:18:36.148Z,23.5
2017-07-04T01:19:13.811Z,25.4
2017-07-04T01:19:51.483Z,20.6
2017-07-04T01:20:29.561Z,19.6
2017-07-04T01:21:07.732Z,18.7
2017-07-04T01:21:45.700Z,15.4
2017-07-04T01:22:23.563Z,16.6
2017-07-04T01:23:01.231Z,20.0
2017-07-04T01:23:38.902Z,18.2
2017-07-04T01:24:17.077Z,25.3
2017-07-04T01:24:55.050Z,23.8
2017-07-04T01:25:33.519Z,20.2
2017-07-04T01:26:11.395Z,25.0
2017-07-04T01:26:48.974Z,23.1
2017-07-04T01:27:27.248Z,20.9
2017-07-04T01:28:05.217Z,18.6
2017-07-04T01:28:43.083Z,21.3
2017-07-04T01:29:21.156Z,27.8
2017-07-04T01:29:59.319Z,21.4
2017-07-04T01:30:36.980Z,23.7
2017-07-04T01:31:14.550Z,20.0
2017-07-04T01:31:52.513Z,24.1
2017-07-04T01:32:30.522Z,20.3
2017-07-04T01:33:08.095Z,23.6
2017-07-04T01:33:46.163Z,22.3
2017-07-04T01:34:24.033Z,21.9
2017-07-04T01:35:02.009Z,21.1
2017-07-04T01:35:39.874Z,19.8
2017-07-04T01:36:17.837Z,25.0
2017-07-04T01:36:55.906Z,21.7
2017-07-04T01:37:33.870Z,23.6
2017-07-04T01:38:11.743Z,22.7
2017-07-04T01:38:49.710Z,21.7
2017-07-04T01:39:27.676Z,24.4
2017-07-04T01:40:05.353Z,26.3
2017-07-04T01:40:43.121Z,28.6
2017-07-04T01:41:20.693Z,23.5
2017-07-04T01:41:58.165Z,26.9
2017-07-04T01:42:35.929Z,25.6
2017-07-04T01:43:13.900Z,24.6
2017-07-04T01:43:51.869Z,21.1
2017-07-04T01:44:29.838Z,22.9
2017-07-04T01:45:07.607Z,24.3
2017-07-04T01:45:47.265Z,20.7
2017-07-04T01:46:27.273Z,28.4
2017-07-04T01:47:05.160Z,28.1
2017-07-04T01:47:42.822Z,27.5
2017-07-04T01:48:20.887Z,29.2
2017-07-04T01:48:59.056Z,27.5
2017-07-04T01:49:37.122Z,27.7
2017-07-04T01:50:15.188Z,28.1
2017-07-04T01:50:52.656Z,30.1
2017-07-04T01:51:30.428Z,30.0
2017-07-04T01:52:08.393Z,20.4
2017-07-04T01:52:46.362Z,22.1
2017-07-04T01:53:24.034Z,25.3
2017-07-04T01:54:01.901Z,27.4
2017-07-04T01:54:39.666Z,25.0
2017-07-04T01:55:17.639Z,18.4
2017-07-04T01:55:55.503Z,23.6
2017-07-04T01:56:33.380Z,26.4
2017-07-04T01:57:11.048Z,24.5
2017-07-04T01:57:48.815Z,26.9
2017-07-04T01:58:26.789Z,22.6
2017-07-04T01:59:04.355Z,30.5
2017-07-04T01:59:42.124Z,31.8
2017-07-04T02:00:19.802Z,24.5
2017-07-04T02:00:57.766Z,21.3
2017-07-04T02:01:35.534Z,24.0
2017-07-04T02:02:13.318Z,25.9
2017-07-04T02:02:50.986Z,27.0
2017-07-04T02:03:28.755Z,22.6
2017-07-04T02:04:06.722Z,25.4
2017-07-04T02:04:44.591Z,21.9
2017-07-04T02:05:22.357Z,21.9
2017-07-04T02:06:00.027Z,21.7
2017-07-04T02:06:37.817Z,22.4
2017-07-04T02:07:15.989Z,23.3
2017-07-04T02:07:54.178Z,25.4
2017-07-04T02:08:31.953Z,27.6
2017-07-04T02:09:09.819Z,28.4
2017-07-04T02:09:47.886Z,23.0
2017-07-04T02:10:25.657Z,19.3
2017-07-04T02:11:03.827Z,26.8
2017-07-04T02:11:41.692Z,18.6
2017-07-04T02:12:19.374Z,26.1
2017-07-04T02:12:57.241Z,27.8
2017-07-04T02:13:35.111Z,24.2
2017-07-04T02:14:13.178Z,20.7
2017-07-04T02:14:51.254Z,22.6
2017-07-04T02:15:29.126Z,23.9
2017-07-04T02:16:06.695Z,21.9
2017-07-04T02:16:44.567Z,22.2
2017-07-04T02:17:22.232Z,26.8
2017-07-04T02:18:00.310Z,22.6
2017-07-04T02:18:38.280Z,33.1
2017-07-04T02:19:16.241Z,22.9
2017-07-04T02:19:54.323Z,17.7
2017-07-04T02:20:32.387Z,23.9
2017-07-04T02:21:10.469Z,24.8
2017-07-04T02:21:48.135Z,27.0
2017-07-04T02:22:26.007Z,29.1
2017-07-04T02:23:03.973Z,23.8
2017-07-04T02:23:41.944Z,19.4
2017-07-04T02:24:19.784Z,21.9
2017-07-04T02:24:57.368Z,24.5
2017-07-04T02:25:35.020Z,20.5
2017-07-04T02:26:12.691Z,20.3
2017-07-04T02:26:50.864Z,22.4
2017-07-04T02:27:28.933Z,20.3
2017-07-04T02:28:06.812Z,20.3
2017-07-04T02:28:44.582Z,17.1
2017-07-04T02:29:22.260Z,22.6
2017-07-04T02:30:00.422Z,24.1
2017-07-04T02:30:38.192Z,18.6
2017-07-04T02:31:16.057Z,19.5
2017-07-04T02:31:53.721Z,25.8
2017-07-04T02:32:31.687Z,23.0
2017-07-04T02:33:09.358Z,28.6
2017-07-04T02:33:47.222Z,29.5
2017-07-04T02:34:25.293Z,21.0
2017-07-04T02:35:03.265Z,19.3
2017-07-04T02:35:41.236Z,22.2
2017-07-04T02:36:19.306Z,27.8
2017-07-04T02:36:57.371Z,26.8
2017-07-04T02:37:35.440Z,25.5
2017-07-04T02:38:13.011Z,24.8
2017-07-04T02:38:50.706Z,30.8
2017-07-04T02:39:28.481Z,30.5
2017-07-04T02:40:06.156Z,24.4
2017-07-04T02:40:43.822Z,24.1
2017-07-04T02:41:21.792Z,21.9
2017-07-04T02:41:59.866Z,23.5
2017-07-04T02:42:37.433Z,22.1
2017-07-04T02:43:15.105Z,27.7
2017-07-04T02:43:53.475Z,33.5
2017-07-04T02:44:31.154Z,21.6
2017-07-04T02:45:08.724Z,24.5
2017-07-04T02:45:46.291Z,27.3
2017-07-04T02:46:24.167Z,24.4
2017-07-04T02:47:01.974Z,26.6
2017-07-04T02:47:39.743Z,24.6
2017-07-04T02:48:17.617Z,24.8
2017-07-04T02:48:55.389Z,27.5
2017-07-04T02:49:33.364Z,29.2
2017-07-04T02:50:11.344Z,27.7
2017-07-04T02:50:49.409Z,32.3
2017-07-04T02:51:27.589Z,27.1
2017-07-04T02:52:05.355Z,27.5
2017-07-04T02:52:43.227Z,30.6
2017-07-04T02:53:21.205Z,29.4
2017-07-04T02:53:58.874Z,24.3
2017-07-04T02:54:36.845Z,28.5
2017-07-04T02:55:14.822Z,28.5
2017-07-04T02:55:52.586Z,25.9
2017-07-04T02:56:30.568Z,30.1
2017-07-04T02:57:08.943Z,33.5
2017-07-04T02:57:47.026Z,30.0
2017-07-04T02:58:24.696Z,26.1
2017-07-04T02:59:02.359Z,27.7
2017-07-04T02:59:40.136Z,31.3
2017-07-04T03:00:18.199Z,30.5
2017-07-04T03:00:56.068Z,25.9
2017-07-04T03:01:34.044Z,24.7
2017-07-04T03:02:12.017Z,29.3
2017-07-04T03:02:49.894Z,32.5
2017-07-04T03:03:27.663Z,29.9
2017-07-04T03:04:05.831Z,27.0
2017-07-04T03:04:43.405Z,25.8
2017-07-04T03:05:21.369Z,26.7
2017-07-04T03:05:59.240Z,26.5
2017-07-04T03:06:36.923Z,20.3
2017-07-04T03:07:14.989Z,26.0
2017-07-04T03:07:52.659Z,27.7
2017-07-04T03:08:30.843Z,26.7
2017-07-04T03:09:08.405Z,23.4
2017-07-04T03:09:46.277Z,23.0
2017-07-04T03:10:24.050Z,29.3
2017-07-04T03:11:01.725Z,37.0
2017-07-04T03:11:39.594Z,31.6
2017-07-04T03:12:17.465Z,28.9
2017-07-04T03:12:55.334Z,28.3
2017-07-04T03:13:32.906Z,26.6
2017-07-04T03:14:10.980Z,32.2
2017-07-04T03:14:48.953Z,34.9
2017-07-04T03:15:26.623Z,37.3
2017-07-04T03:16:04.692Z,33.4
2017-07-04T03:16:42.467Z,26.0
2017-07-04T03:17:20.337Z,27.0
2017-07-04T03:17:58.409Z,29.7
2017-07-04T03:18:36.379Z,25.7
2017-07-04T03:19:14.145Z,28.8
2017-07-04T03:19:52.020Z,27.6
2017-07-04T03:20:29.587Z,34.3
2017-07-04T03:21:07.259Z,32.2
2017-07-04T03:21:49.286Z,30.7
2017-07-04T03:22:28.056Z,27.5
2017-07-04T03:23:05.625Z,26.0
2017-07-04T03:23:43.491Z,27.1
2017-07-04T03:24:21.070Z,29.2
2017-07-04T03:24:58.739Z,28.7
2017-07-04T03:25:36.511Z,30.5
2017-07-04T03:26:14.184Z,31.6
2017-07-04T03:26:52.164Z,33.5
2017-07-04T03:27:29.737Z,31.5
2017-07-04T03:28:07.609Z,27.0
2017-07-04T03:28:45.391Z,29.4
2017-07-04T03:29:23.454Z,30.5
2017-07-04T03:30:01.430Z,30.7
2017-07-04T03:30:39.400Z,28.0
2017-07-04T03:31:17.170Z,29.2
2017-07-04T03:31:54.835Z,32.8
2017-07-04T03:32:33.009Z,31.1
2017-07-04T03:33:10.890Z,32.2
2017-07-04T03:33:48.561Z,29.8
2017-07-04T03:34:26.733Z,27.1
2017-07-04T03:35:04.503Z,29.3
2017-07-04T03:35:42.292Z,26.6
2017-07-04T03:36:20.170Z,33.7
2017-07-04T03:36:58.145Z,34.8
2017-07-04T03:37:36.121Z,35.5
2017-07-04T03:38:13.890Z,32.0
2017-07-04T03:38:51.766Z,30.6
2017-07-04T03:39:29.838Z,30.9
2017-07-04T03:40:07.718Z,31.7
2017-07-04T03:40:45.593Z,36.1
2017-07-04T03:41:23.660Z,31.3
2017-07-04T03:42:01.442Z,27.6
2017-07-04T03:42:39.310Z,30.3
2017-07-04T03:43:17.082Z,32.4
2017-07-04T03:43:55.054Z,31.9
2017-07-04T03:44:33.025Z,27.9
2017-07-04T03:45:11.118Z,31.4
2017-07-04T03:45:49.088Z,32.4
2017-07-04T03:46:27.269Z,28.9
2017-07-04T03:47:05.042Z,31.8
2017-07-04T03:47:42.713Z,33.6
2017-07-04T03:48:20.481Z,35.6
2017-07-04T03:48:58.460Z,36.4
2017-07-04T03:49:36.236Z,28.1
2017-07-04T03:50:14.205Z,27.8
2017-07-04T03:50:52.088Z,31.7
2017-07-04T03:51:30.055Z,35.4
2017-07-04T03:52:07.626Z,34.4
2017-07-04T03:52:45.621Z,28.5
2017-07-04T03:53:23.684Z,30.6
2017-07-04T03:54:01.555Z,29.3
2017-07-04T03:54:39.229Z,31.9
2017-07-04T03:55:17.110Z,37.4
2017-07-04T03:55:55.077Z,33.3
2017-07-04T03:56:33.051Z,30.9
2017-07-04T03:57:10.931Z,36.6
2017-07-04T03:57:48.901Z,34.1
2017-07-04T03:58:26.575Z,28.8
2017-07-04T03:59:04.349Z,30.1
2017-07-04T03:59:42.833Z,34.1
2017-07-04T04:00:20.618Z,36.3
2017-07-04T04:01:01.384Z,38.0
2017-07-04T04:01:39.470Z,34.7
2017-07-04T04:02:17.529Z,34.4
2017-07-04T04:02:55.499Z,31.8
2017-07-04T04:03:33.271Z,31.4
2017-07-04T04:04:11.172Z,29.9
2017-07-04T04:04:49.328Z,33.2
2017-07-04T04:05:27.198Z,37.1
2017-07-04T04:06:05.171Z,31.1
2017-07-04T04:06:43.243Z,30.4
2017-07-04T04:07:21.014Z,35.4
2017-07-04T04:07:58.485Z,34.5
2017-07-04T04:08:36.067Z,36.4
2017-07-04T04:09:13.639Z,38.1
2017-07-04T04:09:51.629Z,31.5
2017-07-04T04:10:29.910Z,32.7
2017-07-04T04:11:07.786Z,35.4
2017-07-04T04:11:45.961Z,32.2
2017-07-04T04:12:23.837Z,29.7
2017-07-04T04:13:01.808Z,27.6
2017-07-04T04:13:39.379Z,36.2
2017-07-04T04:14:17.306Z,38.1
2017-07-04T04:14:54.930Z,39.5
2017-07-04T04:15:32.806Z,36.9
2017-07-04T04:16:10.678Z,39.0
2017-07-04T04:16:48.864Z,40.3
2017-07-04T04:17:26.650Z,35.5
2017-07-04T04:18:04.524Z,35.3
2017-07-04T04:18:42.298Z,36.3
2017-07-04T04:19:20.072Z,37.1
2017-07-04T04:19:58.046Z,35.0
2017-07-04T04:20:36.219Z,32.5
2017-07-04T04:21:13.798Z,31.6
2017-07-04T04:21:51.773Z,31.5
2017-07-04T04:22:29.342Z,35.3
2017-07-04T04:23:07.219Z,34.8
2017-07-04T04:23:45.106Z,38.7
2017-07-04T04:24:23.083Z,40.1
2017-07-04T04:25:00.953Z,37.5
2017-07-04T04:25:38.738Z,42.9
2017-07-04T04:26:16.539Z,39.6
2017-07-04T04:26:54.415Z,37.1
2017-07-04T04:27:32.188Z,36.0
2017-07-04T04:28:09.963Z,35.4
2017-07-04T04:28:47.636Z,34.8
2017-07-04T04:29:25.508Z,37.9
2017-07-04T04:30:03.579Z,35.4
2017-07-04T04:30:41.662Z,36.4
2017-07-04T04:31:19.430Z,35.7
2017-07-04T04:31:57.206Z,39.7
2017-07-04T04:32:35.283Z,37.6
2017-07-04T04:33:13.258Z,43.1
2017-07-04T04:33:51.138Z,40.0
2017-07-04T04:34:28.814Z,39.5
2017-07-04T04:35:06.511Z,40.9
2017-07-04T04:35:44.974Z,34.3
2017-07-04T04:36:25.048Z,34.1
2017-07-04T04:37:03.131Z,33.8
2017-07-04T04:37:41.006Z,35.9
2017-07-04T04:38:18.683Z,43.5
2017-07-04T04:38:56.559Z,40.5
2017-07-04T04:39:34.529Z,33.1
2017-07-04T04:40:12.303Z,34.3
2017-07-04T04:40:50.077Z,33.3
2017-07-04T04:41:27.664Z,35.7
2017-07-04T04:42:05.636Z,38.5
2017-07-04T04:42:43.523Z,38.0
2017-07-04T04:43:21.294Z,41.1
2017-07-04T04:43:59.276Z,41.7
2017-07-04T04:44:37.349Z,39.7
2017-07-04T04:45:15.219Z,39.6
2017-07-04T04:45:53.294Z,40.1
2017-07-04T04:46:31.591Z,41.0
2017-07-04T04:47:09.773Z,38.3
2017-07-04T04:47:47.686Z,39.8
2017-07-04T04:48:25.574Z,40.7
2017-07-04T04:49:03.768Z,38.2
2017-07-04T04:49:41.647Z,31.0
2017-07-04T04:50:19.626Z,42.1
2017-07-04T04:50:57.603Z,44.5
2017-07-04T04:51:35.382Z,37.8
2017-07-04T04:52:13.262Z,39.4
2017-07-04T04:52:50.942Z,37.8
2017-07-04T04:53:29.518Z,31.9
2017-07-04T04:54:07.300Z,33.3
2017-07-04T04:54:45.275Z,40.9
2017-07-04T04:55:23.048Z,41.7
2017-07-04T04:56:01.025Z,36.3
2017-07-04T04:56:38.908Z,35.6
2017-07-04T04:57:17.081Z,32.8
2017-07-04T04:57:54.952Z,31.3
2017-07-04T04:58:32.763Z,32.5
2017-07-04T04:59:10.646Z,37.8
2017-07-04T04:59:48.627Z,34.1
2017-07-04T05:00:26.403Z,34.0
2017-07-04T05:01:04.071Z,32.1
2017-07-04T05:01:42.056Z,34.6
2017-07-04T05:02:20.332Z,32.4
2017-07-04T05:02:58.405Z,38.2
2017-07-04T05:03:36.633Z,34.2
2017-07-04T05:04:14.598Z,38.6
2017-07-04T05:04:52.465Z,36.3
2017-07-04T05:05:30.540Z,43.4
2017-07-04T05:06:08.423Z,37.5
2017-07-04T05:06:46.491Z,39.7
2017-07-04T05:07:24.368Z,37.3
2017-07-04T05:08:02.242Z,38.6
2017-07-04T05:08:40.214Z,38.4
2017-07-04T05:09:18.117Z,33.9
2017-07-04T05:09:55.987Z,38.2
2017-07-04T05:10:34.087Z,34.4
2017-07-04T05:11:11.766Z,33.1
2017-07-04T05:11:49.541Z,38.5
2017-07-04T05:12:27.321Z,39.9
2017-07-04T05:13:05.301Z,37.7
2017-07-04T05:13:43.274Z,35.1
2017-07-04T05:14:21.454Z,36.6
2017-07-04T05:14:59.439Z,33.4
2017-07-04T05:15:37.511Z,36.8
2017-07-04T05:16:15.682Z,43.0
2017-07-04T05:16:53.357Z,40.2
2017-07-04T05:17:31.032Z,39.6
2017-07-04T05:18:08.806Z,36.4
2017-07-04T05:18:46.884Z,33.2
2017-07-04T05:19:24.873Z,35.8
2017-07-04T05:20:02.844Z,40.9
2017-07-04T05:20:41.031Z,39.6
2017-07-04T05:21:18.805Z,36.0
2017-07-04T05:21:56.777Z,38.4
2017-07-04T05:22:34.746Z,37.6
2017-07-04T05:23:12.631Z,34.9
2017-07-04T05:23:50.815Z,35.1
2017-07-04T05:24:28.793Z,38.4
2017-07-04T05:25:06.775Z,36.0
2017-07-04T05:25:44.650Z,35.6
2017-07-04T05:26:22.225Z,37.0
2017-07-04T05:26:59.999Z,42.6
2017-07-04T05:27:37.986Z,28.4
2017-07-04T05:28:16.065Z,36.5
2017-07-04T05:28:53.732Z,40.9
2017-07-04T05:29:31.616Z,35.5
2017-07-04T05:30:09.393Z,32.2
2017-07-04T05:30:46.967Z,27.6
2017-07-04T05:31:25.048Z,30.3
2017-07-04T05:32:02.730Z,34.8
2017-07-04T05:32:40.609Z,34.8
2017-07-04T05:33:18.485Z,29.1
2017-07-04T05:33:56.856Z,26.8
2017-07-04T05:34:34.533Z,25.3
2017-07-04T05:35:12.225Z,29.1
2017-07-04T05:35:50.302Z,29.5
2017-07-04T05:36:30.459Z,31.1
2017-07-04T05:37:08.443Z,26.1
2017-07-04T05:37:46.419Z,28.1
2017-07-04T05:38:24.295Z,32.9
2017-07-04T05:39:02.379Z,33.9
2017-07-04T05:39:40.261Z,24.9
2017-07-04T05:40:18.040Z,26.7
2017-07-04T05:40:55.828Z,23.5
2017-07-04T05:41:33.522Z,22.4
2017-07-04T05:42:11.496Z,27.7
2017-07-04T05:42:49.367Z,31.0
2017-07-04T05:43:26.949Z,27.1
2017-07-04T05:44:05.225Z,25.6
2017-07-04T05:44:43.008Z,26.7
2017-07-04T05:45:20.796Z,20.7
2017-07-04T05:45:58.870Z,26.5
2017-07-04T05:46:36.848Z,30.3
2017-07-04T05:47:14.739Z,30.5
2017-07-04T05:47:52.517Z,24.4
2017-07-04T05:48:30.190Z,22.0
2017-07-04T05:49:08.467Z,21.7
2017-07-04T05:49:46.349Z,22.6
2017-07-04T05:50:24.025Z,23.4
2017-07-04T05:51:02.103Z,28.0
2017-07-04T05:51:40.080Z,19.7
2017-07-04T05:52:18.167Z,23.1
2017-07-04T05:52:56.340Z,23.7
2017-07-04T05:53:34.714Z,18.2
2017-07-04T05:54:12.899Z,20.4
2017-07-04T05:54:50.971Z,23.1
2017-07-04T05:55:28.742Z,22.4
2017-07-04T05:56:06.811Z,22.4
2017-07-04T05:56:44.695Z,21.5
2017-07-04T05:57:22.282Z,21.5
2017-07-04T05:58:00.269Z,18.8
2017-07-04T05:58:38.063Z,21.8
2017-07-04T05:59:15.939Z,23.4
2017-07-04T05:59:53.919Z,20.2
2017-07-04T06:00:31.795Z,22.6
2017-07-04T06:01:09.574Z,22.1
2017-07-04T06:01:47.351Z,26.6
2017-07-04T06:02:25.227Z,21.5
2017-07-04T06:03:03.201Z,20.8
2017-07-04T06:03:41.281Z,24.2
2017-07-04T06:04:19.062Z,24.7
2017-07-04T06:04:57.042Z,24.1
2017-07-04T06:05:34.917Z,21.6
2017-07-04T06:06:13.007Z,22.1
2017-07-04T06:06:50.785Z,20.9
2017-07-04T06:07:28.557Z,17.6
2017-07-04T06:08:06.443Z,15.5
2017-07-04T06:08:44.615Z,17.0
2017-07-04T06:09:22.588Z,19.5
2017-07-04T06:10:00.381Z,18.0
2017-07-04T06:10:38.457Z,21.1
2017-07-04T06:11:16.444Z,22.5
2017-07-04T06:11:54.321Z,22.6
2017-07-04T06:12:32.005Z,25.8
2017-07-04T06:13:10.081Z,22.5
2017-07-04T06:13:48.055Z,23.1
2017-07-04T06:14:26.027Z,23.2
2017-07-04T06:15:04.205Z,20.8
2017-07-04T06:15:41.983Z,25.1
2017-07-04T06:16:20.057Z,27.4
2017-07-04T06:16:58.046Z,18.8
2017-07-04T06:17:36.033Z,23.8
2017-07-04T06:18:13.703Z,27.0
2017-07-04T06:18:51.902Z,25.2
2017-07-04T06:19:29.781Z,26.1
2017-07-04T06:20:07.761Z,21.6
2017-07-04T06:20:45.831Z,19.2
2017-07-04T06:21:23.306Z,19.4
2017-07-04T06:22:00.776Z,20.6
2017-07-04T06:22:38.754Z,22.1
2017-07-04T06:23:16.446Z,20.3
2017-07-04T06:23:54.221Z,20.5
2017-07-04T06:24:31.795Z,20.6
2017-07-04T06:25:09.678Z,18.0
2017-07-04T06:25:47.862Z,17.4
2017-07-04T06:26:28.770Z,17.6
2017-07-04T06:27:06.252Z,20.5
2017-07-04T06:27:44.342Z,18.2
2017-07-04T06:28:22.216Z,15.8
2017-07-04T06:29:00.393Z,17.0
2017-07-04T06:29:38.376Z,17.8
2017-07-04T06:30:16.261Z,17.6
2017-07-04T06:30:54.343Z,16.2
2017-07-04T06:31:32.188Z,16.2
2017-07-04T06:32:10.374Z,15.5
2017-07-04T06:32:48.443Z,15.2
2017-07-04T06:33:26.422Z,19.7
2017-07-04T06:34:04.613Z,23.4
2017-07-04T06:34:42.396Z,18.4
2017-07-04T06:35:20.376Z,15.5
2017-07-04T06:35:58.347Z,16.2
2017-07-04T06:36:36.323Z,17.2
2017-07-04T06:37:14.307Z,15.8
2017-07-04T06:37:52.301Z,19.6
2017-07-04T06:38:30.376Z,17.0
2017-07-04T06:39:08.359Z,18.4
2017-07-04T06:39:46.236Z,17.9
2017-07-04T06:40:24.207Z,19.1
2017-07-04T06:41:02.963Z,18.6
2017-07-04T06:41:41.349Z,13.8
2017-07-04T06:42:19.135Z,17.8
2017-07-04T06:42:57.001Z,17.3
2017-07-04T06:43:34.579Z,20.4
2017-07-04T06:44:12.362Z,20.3
2017-07-04T06:44:50.236Z,19.5
2017-07-04T06:45:28.001Z,18.6
2017-07-04T06:46:06.182Z,18.2
2017-07-04T06:46:44.049Z,20.8
2017-07-04T06:47:21.924Z,20.2
2017-07-04T06:47:59.820Z,21.1
2017-07-04T06:48:38.109Z,18.5
2017-07-04T06:49:16.086Z,21.2
2017-07-04T06:49:53.964Z,25.8
2017-07-04T06:50:31.646Z,21.9
2017-07-04T06:51:09.513Z,17.2
2017-07-04T06:51:47.087Z,13.8
2017-07-04T06:52:24.561Z,15.6
2017-07-04T06:53:02.433Z,16.3
2017-07-04T06:53:40.404Z,15.7
2017-07-04T06:54:18.226Z,19.1
2017-07-04T06:54:56.212Z,15.7
2017-07-04T06:55:34.386Z,17.1
2017-07-04T06:56:12.177Z,15.0
2017-07-04T06:56:50.044Z,15.7
2017-07-04T06:57:27.913Z,14.1
2017-07-04T06:58:05.692Z,13.9
2017-07-04T06:58:43.581Z,19.0
2017-07-04T06:59:21.653Z,15.0
2017-07-04T06:59:59.325Z,13.6
2017-07-04T07:00:37.201Z,15.4
2017-07-04T07:01:14.902Z,12.6
2017-07-04T07:01:52.683Z,12.0
2017-07-04T07:02:30.558Z,14.1
2017-07-04T07:03:08.662Z,12.5
2017-07-04T07:03:47.296Z,11.4
2017-07-04T07:04:25.996Z,15.6
2017-07-04T07:05:04.526Z,13.8
2017-07-04T07:05:43.019Z,16.6
2017-07-04T07:06:21.626Z,14.8
2017-07-04T07:06:59.795Z,12.4
2017-07-04T07:07:37.677Z,13.0
2017-07-04T07:08:15.646Z,14.8
2017-07-04T07:08:53.729Z,13.9
2017-07-04T07:09:31.603Z,15.9
2017-07-04T07:10:09.382Z,17.1
2017-07-04T07:10:47.154Z,13.3
2017-07-04T07:11:25.231Z,14.3
2017-07-04T07:12:02.814Z,15.9
2017-07-04T07:12:40.585Z,18.7
2017-07-04T07:13:18.458Z,13.6
2017-07-04T07:13:56.528Z,11.1
2017-07-04T07:14:34.402Z,11.1
2017-07-04T07:15:12.275Z,12.6
2017-07-04T07:15:50.552Z,10.7
2017-07-04T07:16:28.132Z,14.1
2017-07-04T07:17:06.008Z,21.4
2017-07-04T07:17:44.082Z,17.6
2017-07-04T07:18:21.955Z,17.9
2017-07-04T07:18:59.935Z,17.3
2017-07-04T07:19:37.608Z,18.2
2017-07-04T07:20:15.685Z,15.1
2017-07-04T07:20:53.609Z,15.6
2017-07-04T07:21:31.473Z,17.9
2017-07-04T07:22:09.245Z,17.9
2017-07-04T07:22:46.918Z,15.8
2017-07-04T07:23:24.503Z,14.1
2017-07-04T07:24:02.679Z,14.5
2017-07-04T07:24:40.655Z,15.5
2017-07-04T07:25:18.433Z,14.5
2017-07-04T07:25:56.402Z,15.5
2017-07-04T07:26:34.278Z,17.5
2017-07-04T07:27:11.861Z,18.6
2017-07-04T07:27:50.142Z,15.8
2017-07-04T07:28:27.816Z,14.8
2017-07-04T07:29:05.892Z,12.9
2017-07-04T07:29:43.682Z,14.0
2017-07-04T07:30:21.661Z,18.0
2017-07-04T07:30:59.534Z,16.3
2017-07-04T07:31:37.512Z,17.8
2017-07-04T07:32:15.386Z,14.4
2017-07-04T07:32:53.162Z,12.7
2017-07-04T07:33:31.032Z,16.6
2017-07-04T07:34:09.110Z,19.2
2017-07-04T07:34:47.487Z,14.7
2017-07-04T07:35:25.166Z,18.3
2017-07-04T07:36:03.445Z,17.4
2017-07-04T07:36:41.428Z,16.1
2017-07-04T07:37:19.002Z,19.7
2017-07-04T07:37:56.877Z,20.5
2017-07-04T07:38:34.752Z,14.9
2017-07-04T07:39:12.533Z,17.1
2017-07-04T07:39:50.707Z,16.1
2017-07-04T07:40:28.387Z,16.3
2017-07-04T07:41:06.169Z,16.3
2017-07-04T07:41:43.835Z,17.0
2017-07-04T07:42:22.105Z,19.9
2017-07-04T07:43:00.387Z,17.2
2017-07-04T07:43:38.466Z,14.9
2017-07-04T07:44:16.346Z,18.5
2017-07-04T07:44:54.026Z,19.0
2017-07-04T07:45:32.201Z,19.4
2017-07-04T07:46:09.980Z,15.9
2017-07-04T07:46:47.949Z,14.8
2017-07-04T07:47:25.917Z,17.2
2017-07-04T07:48:03.701Z,20.6
2017-07-04T07:48:41.385Z,20.2
2017-07-04T07:49:19.258Z,20.4
2017-07-04T07:49:56.940Z,18.4
2017-07-04T07:50:34.720Z,16.8
2017-07-04T07:51:12.395Z,16.0
2017-07-04T07:51:50.373Z,18.5
2017-07-04T07:52:28.549Z,19.3
2017-07-04T07:53:06.820Z,17.7
2017-07-04T07:53:44.706Z,16.7
2017-07-04T07:54:22.282Z,19.2
2017-07-04T07:55:00.164Z,18.7
2017-07-04T07:55:38.139Z,18.8
2017-07-04T07:56:16.115Z,18.2
2017-07-04T07:56:53.896Z,14.3
2017-07-04T07:57:31.766Z,16.1
2017-07-04T07:58:09.651Z,17.5
2017-07-04T07:58:47.528Z,18.7
2017-07-04T07:59:25.502Z,24.0
2017-07-04T08:00:03.375Z,23.2
2017-07-04T08:00:41.247Z,19.3
2017-07-04T08:01:19.332Z,20.0
2017-07-04T08:01:57.107Z,18.5
2017-07-04T08:02:35.086Z,16.2
2017-07-04T08:03:12.863Z,19.3
2017-07-04T08:03:50.733Z,18.1
2017-07-04T08:04:28.720Z,19.3
2017-07-04T08:05:06.695Z,21.5
2017-07-04T08:05:44.373Z,23.0
2017-07-04T08:06:24.708Z,20.1
2017-07-04T08:07:02.482Z,18.2
2017-07-04T08:07:40.062Z,16.1
2017-07-04T08:08:18.035Z,23.2
2017-07-04T08:08:55.744Z,18.6
2017-07-04T08:09:33.921Z,21.9
2017-07-04T08:10:11.895Z,20.3
2017-07-04T08:10:49.777Z,20.4
2017-07-04T08:11:27.651Z,18.3
2017-07-04T08:12:05.441Z,19.0
2017-07-04T08:12:43.015Z,22.2
2017-07-04T08:13:20.908Z,24.5
2017-07-04T08:13:58.617Z,25.5
2017-07-04T08:14:36.883Z,29.9
2017-07-04T08:15:14.565Z,24.3
2017-07-04T08:15:52.645Z,25.1
2017-07-04T08:16:33.626Z,22.2
2017-07-04T08:17:11.400Z,18.1
2017-07-04T08:17:49.279Z,23.0
2017-07-04T08:18:27.263Z,23.4
2017-07-04T08:19:05.341Z,20.0
2017-07-04T08:19:43.425Z,19.4
2017-07-04T08:20:21.202Z,23.1
2017-07-04T08:21:02.085Z,25.0
2017-07-04T08:21:44.190Z,21.8
2017-07-04T08:22:24.486Z,18.4
2017-07-04T08:23:04.467Z,18.4
2017-07-04T08:25:23.898Z,28.8
2017-07-04T08:26:02.051Z,23.8
2017-07-04T08:28:04.380Z,23.5